Terminal Aerodrome Forecast
Issued by NWS Wilmington, OH

Current Version | Previous Version | Graphics & Text | Print | Product List | Glossary On
Versions: 1 2 3 4 5 6 7 8 9 10 11 12 13 14 15 16 17 18 19 20 21 22 23 24 25 26
000
FTUS41 KILN 201500 AAA
TAFILN
TAF AMD
KILN 201502Z 2015/2112 06004KT 6SM BR BKN012
     FM201600 11004KT P6SM BKN020
     FM201800 13006KT P6SM BKN025
     FM210100 VRB03KT 3SM BR BKN025=

USA.gov is the U.S. government's official web portal to all federal, state and local government web resources and services.